Time;durP1;ratioP1;P1;durP2;ratioP2;P2;SDS_P1;SDS_P2;PMS_P1;PMS_P2;Temp;Humidity;BMP_temperature;BMP_pressure;BME280_temperature;BME280_humidity;BME280_pressure;Samples;Min_cycle;Max_cycle;Signal;HPM_P1;HPM_P2
2023/07/02 00:01:48;;;;;;;8.63;5.05;;;563.40;2432.00;;;;;;4939612;29;20035;-85
2023/07/02 00:04:16;;;;;;;7.07;4.97;;;563.40;2432.00;;;;;;4938554;29;20068;-83
2023/07/02 00:06:45;;;;;;;7.70;4.90;;;563.40;2432.00;;;;;;4939455;29;20078;-85
2023/07/02 00:09:11;;;;;;;8.50;5.38;;;563.40;2432.00;;;;;;4921273;29;20450;-83
2023/07/02 00:11:42;;;;;;;8.43;5.20;;;563.40;2432.00;;;;;;4937924;29;20039;-84
2023/07/02 00:14:09;;;;;;;6.68;4.82;;;563.40;2432.00;;;;;;4939725;29;20035;-85
2023/07/02 00:16:37;;;;;;;7.25;5.25;;;563.40;2432.00;;;;;;4913478;29;20060;-84
2023/07/02 00:19:03;;;;;;;7.53;5.18;;;563.40;2432.00;;;;;;4920460;29;20044;-84
2023/07/02 00:21:29;;;;;;;7.93;5.22;;;563.50;2432.00;;;;;;4927049;29;20031;-84
2023/07/02 00:23:58;;;;;;;7.47;5.50;;;563.40;2432.00;;;;;;4939274;29;20031;-84
2023/07/02 00:26:28;;;;;;;8.60;5.40;;;563.50;2432.00;;;;;;4953203;29;20462;-83
2023/07/02 00:28:55;;;;;;;8.35;5.43;;;563.50;2432.00;;;;;;4938848;29;20051;-84
2023/07/02 00:31:21;;;;;;;8.07;5.30;;;563.50;2432.00;;;;;;4938398;29;20051;-84
2023/07/02 00:33:47;;;;;;;8.00;5.10;;;563.50;2432.00;;;;;;4937370;29;20427;-82
2023/07/02 00:36:14;;;;;;;7.95;5.50;;;563.50;2432.00;;;;;;4920263;29;20204;-81
2023/07/02 00:38:46;;;;;;;7.47;5.07;;;563.50;2432.00;;;;;;4922714;29;20036;-81
2023/07/02 00:41:12;;;;;;;10.13;5.53;;;563.40;2432.00;;;;;;4938410;29;20494;-82
2023/07/02 00:43:44;;;;;;;9.18;5.22;;;563.40;2432.00;;;;;;4938782;29;20031;-79
2023/07/02 00:46:19;;;;;;;7.68;5.43;;;563.40;2432.00;;;;;;4938028;29;20028;-82
2023/07/02 00:48:53;;;;;;;8.57;5.35;;;563.20;2432.00;;;;;;4938284;29;20024;-84
2023/07/02 00:51:24;;;;;;;7.28;4.90;;;538.50;2406.40;;;;;;4938711;29;20107;-82
2023/07/02 00:53:52;;;;;;;8.35;5.30;;;538.50;2406.40;;;;;;4938676;29;20035;-84
2023/07/02 00:56:33;;;;;;;8.68;5.43;;;538.40;2406.40;;;;;;4938465;29;20024;-84
2023/07/02 00:59:00;;;;;;;7.20;4.82;;;538.40;2406.40;;;;;;4937722;29;20475;-85
2023/07/02 01:01:33;;;;;;;8.32;5.20;;;538.40;2406.40;;;;;;4938740;29;20027;-84
2023/07/02 01:04:02;;;;;;;7.88;5.13;;;538.50;2406.40;;;;;;4937084;29;20054;-83
2023/07/02 01:06:34;;;;;;;8.05;5.25;;;563.20;2432.00;;;;;;4938360;29;20494;-84
2023/07/02 01:09:05;;;;;;;8.20;4.72;;;538.40;2406.40;;;;;;4937725;29;20056;-81
2023/07/02 01:11:40;;;;;;;7.63;4.95;;;538.40;2406.40;;;;;;4934494;29;20118;-84
2023/07/02 01:14:08;;;;;;;6.78;4.93;;;538.20;2406.40;;;;;;4938329;29;20023;-84
2023/07/02 01:16:35;;;;;;;8.30;5.05;;;538.20;2406.40;;;;;;4936630;29;20130;-83
2023/07/02 01:19:04;;;;;;;8.48;4.90;;;538.20;2406.40;;;;;;4938188;29;20110;-83
2023/07/02 01:21:32;;;;;;;9.40;4.97;;;538.10;2406.40;;;;;;4937180;29;20470;-83
2023/07/02 01:24:00;;;;;;;6.70;4.60;;;538.10;2406.40;;;;;;4938068;29;20031;-84
2023/07/02 01:26:34;;;;;;;7.38;4.60;;;538.10;2406.40;;;;;;4937310;29;20091;-83
2023/07/02 01:29:16;;;;;;;7.43;4.83;;;538.10;2406.40;;;;;;4916999;29;20126;-83
2023/07/02 01:31:42;;;;;;;7.05;4.93;;;538.10;2406.40;;;;;;4938258;29;20310;-84
2023/07/02 01:34:09;;;;;;;6.50;4.35;;;538.00;2406.40;;;;;;4936735;29;20051;-81
2023/07/02 01:36:35;;;;;;;7.10;4.50;;;538.00;2406.40;;;;;;4937297;29;20037;-79
2023/07/02 01:39:00;;;;;;;7.32;4.63;;;538.10;2406.40;;;;;;4930390;29;20059;-82
2023/07/02 01:41:26;;;;;;;6.50;4.18;;;538.10;2406.40;;;;;;4916515;29;20075;-82
2023/07/02 01:43:52;;;;;;;6.38;4.15;;;538.10;2406.40;;;;;;4916641;29;20063;-82
2023/07/02 01:46:18;;;;;;;6.40;3.90;;;538.10;2406.40;;;;;;4918439;29;20480;-82
2023/07/02 01:48:43;;;;;;;6.30;3.85;;;538.10;2406.40;;;;;;4930534;29;20083;-83
2023/07/02 01:51:09;;;;;;;6.85;4.00;;;538.10;2406.40;;;;;;4920774;29;20027;-84
2023/07/02 01:53:35;;;;;;;6.30;3.78;;;538.10;2406.40;;;;;;4920677;29;20034;-85
2023/07/02 01:56:00;;;;;;;6.85;4.00;;;538.10;2406.40;;;;;;4937472;29;20039;-84
2023/07/02 01:58:26;;;;;;;5.55;3.70;;;538.00;2406.40;;;;;;4920477;29;20031;-83
2023/07/02 02:00:52;;;;;;;6.55;4.32;;;538.00;2406.40;;;;;;4937565;29;20552;-85
2023/07/02 02:03:17;;;;;;;7.50;4.15;;;538.00;2406.40;;;;;;4920305;29;20028;-85
2023/07/02 02:05:44;;;;;;;5.82;4.20;;;537.90;2406.40;;;;;;4936006;29;20047;-84
2023/07/02 02:08:10;;;;;;;7.07;4.40;;;;;;;;;;4921785;29;20533;-84
2023/07/02 02:13:58;;;;;;;6.80;4.90;;;;;;;;;;4937701;29;20042;-84
2023/07/02 02:16:25;;;;;;;8.27;4.68;;;;;;;;;;4937459;29;20114;-84
2023/07/02 02:18:51;;;;;;;9.52;5.40;;;;;;;;;;4937232;29;20079;-83
2023/07/02 02:21:18;;;;;;;8.73;5.38;;;;;;;;;;4936024;29;20383;-79
2023/07/02 02:23:44;;;;;;;8.40;5.20;;;;;;;;;;4925613;29;20058;-81
2023/07/02 02:26:10;;;;;;;9.55;5.50;;;;;;;;;;4937009;29;20043;-82
2023/07/02 02:28:37;;;;;;;8.90;5.50;;;;;;;;;;4949547;28;20035;-82
2023/07/02 02:31:03;;;;;;;7.75;5.63;;;;;;;;;;4967568;28;20047;-81
2023/07/02 02:33:29;;;;;;;9.25;5.63;;;;;;;;;;4936164;29;20484;-80
2023/07/02 02:35:55;;;;;;;9.63;6.07;;;;;;;;;;4936451;29;20036;-82
2023/07/02 02:38:21;;;;;;;8.60;5.80;;;;;;;;;;4936845;29;20075;-83
2023/07/02 02:41:08;;;;;;;8.35;5.85;;;;;;;;;;4936675;29;20111;-83
2023/07/02 02:43:34;;;;;;;10.70;6.10;;;;;;;;;;4936807;29;20082;-83
2023/07/02 02:46:00;;;;;;;9.15;6.28;;;;;;;;;;4937062;29;20016;-84
2023/07/02 02:48:26;;;;;;;10.73;6.13;;;;;;;;;;4937080;29;20116;-85
2023/07/02 02:50:52;;;;;;;9.40;6.30;;;;;;;;;;4936896;29;20028;-84
2023/07/02 02:53:18;;;;;;;9.85;6.20;;;;;;;;;;4934184;29;20107;-82
2023/07/02 02:55:44;;;;;;;9.40;6.20;;;;;;;;;;4935921;29;20023;-83
2023/07/02 02:58:10;;;;;;;9.55;6.15;;;;;;;;;;4936164;29;20024;-82
2023/07/02 03:00:38;;;;;;;9.10;5.88;;;;;;;;;;4936243;29;20044;-85
2023/07/02 03:03:04;;;;;;;9.93;6.30;;;;;;;;;;4951095;29;20044;-83
2023/07/02 03:05:30;;;;;;;9.30;6.50;;;;;;;;;;4934495;29;20070;-83
2023/07/02 03:07:56;;;;;;;10.40;6.82;;;;;;;;;;4936481;29;20117;-83
2023/07/02 03:10:22;;;;;;;9.80;6.93;;;;;;;;;;4935064;29;20490;-79
2023/07/02 03:12:48;;;;;;;9.85;6.65;;;;;;;;;;4926352;29;20155;-80
2023/07/02 03:15:15;;;;;;;10.13;6.40;;;;;;;;;;4916936;29;20497;-82
2023/07/02 03:17:41;;;;;;;10.32;6.55;;;;;;;;;;4932992;29;20098;-81
2023/07/02 03:20:10;;;;;;;9.90;6.60;;;537.70;2406.40;;;;;;4935904;29;20063;-82
2023/07/02 03:22:35;;;;;;;11.45;6.88;;;512.90;2380.80;;;;;;4935869;29;20047;-81
2023/07/02 03:25:01;;;;;;;10.85;6.85;;;512.70;2380.80;;;;;;4935836;28;20493;-83
2023/07/02 03:27:27;;;;;;;10.18;6.72;;;512.70;2380.80;;;;;;4936251;29;20027;-83
2023/07/02 03:29:53;;;;;;;12.27;7.72;;;512.60;2380.80;;;;;;4936252;29;20027;-83
2023/07/02 03:32:19;;;;;;;10.52;7.28;;;512.50;2380.80;;;;;;4936339;29;20035;-82
2023/07/02 03:34:44;;;;;;;10.77;7.63;;;512.50;2380.80;;;;;;4936164;29;20027;-83
2023/07/02 03:37:10;;;;;;;11.88;8.00;;;512.50;2380.80;;;;;;4936158;29;20028;-81
2023/07/02 03:39:36;;;;;;;11.55;8.60;;;512.50;2380.80;;;;;;4936071;29;20367;-82
2023/07/02 03:42:02;;;;;;;12.15;8.55;;;512.50;2380.80;;;;;;4934631;29;20027;-82
2023/07/02 03:44:27;;;;;;;12.88;8.98;;;512.50;2380.80;;;;;;4936054;29;20031;-82
2023/07/02 03:46:53;;;;;;;13.13;9.07;;;512.50;2380.80;;;;;;4919128;29;20063;-81
2023/07/02 03:49:19;;;;;;;13.60;9.45;;;512.40;2380.80;;;;;;4935945;29;20463;-83
2023/07/02 03:51:45;;;;;;;13.82;9.88;;;512.30;2380.80;;;;;;4919344;29;20024;-82
2023/07/02 03:54:10;;;;;;;14.80;10.15;;;512.30;2380.80;;;;;;4935932;29;20032;-83
2023/07/02 03:56:54;;;;;;;20.13;11.60;;;512.10;2380.80;;;;;;4935984;29;20020;-83
2023/07/02 03:59:20;;;;;;;18.02;11.20;;;512.20;2380.80;;;;;;4932843;28;20386;-80
